createdAt,value
2022-11-12T00:01:10.697Z,71.18
2022-11-12T00:03:38.295Z,71.16
2022-11-12T00:06:05.478Z,71.54
2022-11-12T00:08:32.737Z,71.68
2022-11-12T00:10:59.790Z,72.11
2022-11-12T00:13:26.870Z,72.37
2022-11-12T00:15:54.065Z,71.80
2022-11-12T00:18:21.375Z,71.88
2022-11-12T00:20:48.472Z,71.20
2022-11-12T00:23:15.740Z,71.39
2022-11-12T00:25:42.840Z,71.16
2022-11-12T00:28:11.261Z,72.02
2022-11-12T00:30:41.081Z,71.17
2022-11-12T00:33:08.398Z,70.76
2022-11-12T00:35:35.884Z,71.21
2022-11-12T00:38:03.139Z,71.47
2022-11-12T00:40:30.664Z,71.38
2022-11-12T00:42:58.089Z,71.72
2022-11-12T00:45:25.579Z,71.48
2022-11-12T00:47:57.327Z,71.75
2022-11-12T00:50:25.143Z,72.25
2022-11-12T00:52:54.130Z,71.71
2022-11-12T00:55:23.922Z,71.93
2022-11-12T00:57:51.151Z,72.47
2022-11-12T01:00:19.473Z,72.65
2022-11-12T01:02:51.025Z,72.28
2022-11-12T01:05:19.819Z,72.72
2022-11-12T01:07:56.047Z,72.38
2022-11-12T01:10:23.588Z,71.64
2022-11-12T01:12:52.934Z,71.56
2022-11-12T01:15:19.945Z,71.83
2022-11-12T01:17:47.121Z,72.16
2022-11-12T01:20:16.343Z,71.42
2022-11-12T01:22:43.760Z,71.23
2022-11-12T01:25:13.378Z,71.32
2022-11-12T01:27:42.928Z,71.02
2022-11-12T01:30:10.955Z,71.10
2022-11-12T01:32:38.105Z,71.09
2022-11-12T01:35:05.992Z,71.00
2022-11-12T01:37:33.046Z,71.17
2022-11-12T01:40:00.259Z,70.64
2022-11-12T01:42:34.528Z,70.41
2022-11-12T01:45:01.569Z,71.03
2022-11-12T01:47:34.155Z,70.76
2022-11-12T01:50:16.507Z,70.80
2022-11-12T01:52:54.055Z,71.19
2022-11-12T01:55:27.627Z,70.95
2022-11-12T01:58:11.669Z,71.11
2022-11-12T02:00:40.745Z,71.94
2022-11-12T02:03:29.831Z,71.24
2022-11-12T02:06:09.710Z,70.96
2022-11-12T02:08:40.154Z,70.86
2022-11-12T02:11:20.468Z,70.73
2022-11-12T02:14:03.678Z,70.88
2022-11-12T02:16:42.136Z,70.59
2022-11-12T02:19:13.535Z,70.42
2022-11-12T02:21:40.691Z,70.26
2022-11-12T02:24:27.571Z,69.96
2022-11-12T02:26:56.084Z,70.39
2022-11-12T02:29:23.621Z,70.43
2022-11-12T02:31:50.795Z,71.05
2022-11-12T02:34:17.955Z,70.39
2022-11-12T02:36:47.294Z,70.06
2022-11-12T02:39:14.336Z,70.72
2022-11-12T02:41:41.504Z,70.57
2022-11-12T02:44:08.610Z,70.79
2022-11-12T02:46:35.636Z,70.96
2022-11-12T02:49:02.673Z,70.46
2022-11-12T02:51:31.510Z,70.69
2022-11-12T02:53:58.749Z,69.97
2022-11-12T02:56:25.967Z,70.56
2022-11-12T02:58:53.065Z,70.51
2022-11-12T03:01:20.284Z,71.04
2022-11-12T03:03:47.514Z,71.04
2022-11-12T03:06:14.618Z,70.50
2022-11-12T03:08:44.135Z,70.17
2022-11-12T03:11:14.975Z,69.83
2022-11-12T03:13:42.540Z,69.85
2022-11-12T03:16:10.090Z,70.07
2022-11-12T03:18:37.942Z,69.53
2022-11-12T03:21:05.959Z,69.44
2022-11-12T03:23:33.090Z,68.68
2022-11-12T03:26:04.438Z,68.78
2022-11-12T03:28:32.101Z,69.02
2022-11-12T03:31:00.647Z,70.18
2022-11-12T03:33:28.033Z,69.57
2022-11-12T03:35:55.273Z,69.00
2022-11-12T03:38:25.018Z,69.02
2022-11-12T03:40:52.287Z,69.42
2022-11-12T03:43:19.299Z,68.89
2022-11-12T03:45:51.765Z,69.25
2022-11-12T03:48:18.885Z,69.46
2022-11-12T03:50:45.982Z,68.87
2022-11-12T03:53:13.254Z,69.33
2022-11-12T03:55:42.741Z,68.83
2022-11-12T03:58:09.867Z,68.50
2022-11-12T04:00:36.885Z,68.21
2022-11-12T04:03:03.944Z,68.96
2022-11-12T04:05:49.254Z,68.04
2022-11-12T04:08:36.311Z,68.60
2022-11-12T04:11:14.051Z,68.31
2022-11-12T04:13:43.254Z,68.82
2022-11-12T04:16:32.894Z,68.90
2022-11-12T04:19:20.802Z,68.80
2022-11-12T04:21:55.628Z,68.59
2022-11-12T04:25:00.852Z,68.27
2022-11-12T04:27:34.429Z,68.16
2022-11-12T04:30:16.920Z,70.18
2022-11-12T04:32:49.625Z,69.54
2022-11-12T04:35:18.960Z,69.52
2022-11-12T04:37:46.269Z,69.31
2022-11-12T04:40:43.373Z,70.80
2022-11-12T04:43:33.383Z,70.62
2022-11-12T04:46:02.579Z,70.56
2022-11-12T04:48:30.780Z,72.18
2022-11-12T04:51:27.850Z,71.37
2022-11-12T04:53:54.990Z,70.98
2022-11-12T04:56:22.099Z,71.14
2022-11-12T04:58:49.243Z,71.26
2022-11-12T05:01:16.302Z,71.71
2022-11-12T05:03:43.564Z,72.14
2022-11-12T05:06:29.332Z,72.78
2022-11-12T05:08:56.740Z,73.21
2022-11-12T05:11:23.835Z,71.98
2022-11-12T05:13:50.999Z,72.83
2022-11-12T05:16:18.085Z,72.64
2022-11-12T05:18:45.142Z,72.51
2022-11-12T05:21:30.518Z,71.37
2022-11-12T05:23:57.649Z,71.58
2022-11-12T05:26:24.694Z,71.88
2022-11-12T05:28:54.114Z,71.71
2022-11-12T05:31:21.175Z,72.49
2022-11-12T05:33:48.254Z,72.70
2022-11-12T05:36:15.357Z,72.77
2022-11-12T05:38:44.525Z,72.94
2022-11-12T05:41:15.978Z,73.17
2022-11-12T05:43:45.881Z,72.81
2022-11-12T05:46:13.056Z,73.24
2022-11-12T05:48:40.123Z,72.21
2022-11-12T05:51:12.890Z,71.77
2022-11-12T05:53:42.555Z,71.24
2022-11-12T05:56:10.922Z,71.91
2022-11-12T05:58:38.808Z,71.87
2022-11-12T06:01:06.223Z,71.32
2022-11-12T06:03:33.472Z,71.53
2022-11-12T06:06:00.778Z,70.43
2022-11-12T06:08:28.936Z,70.87
2022-11-12T06:10:58.816Z,71.65
2022-11-12T06:13:26.748Z,70.69
2022-11-12T06:15:55.508Z,71.24
2022-11-12T06:18:24.043Z,70.75
2022-11-12T06:21:10.322Z,70.05
2022-11-12T06:23:42.982Z,70.11
2022-11-12T06:26:10.013Z,70.39
2022-11-12T06:28:39.807Z,70.19
2022-11-12T06:31:07.096Z,71.38
2022-11-12T06:33:34.269Z,70.84
2022-11-12T06:36:04.762Z,70.58
2022-11-12T06:38:38.256Z,70.21
2022-11-12T06:41:06.782Z,70.38
2022-11-12T06:43:34.921Z,70.39
2022-11-12T06:46:08.096Z,70.03
2022-11-12T06:48:35.334Z,69.81
2022-11-12T06:51:20.954Z,69.62
2022-11-12T06:53:51.941Z,69.34
2022-11-12T06:56:19.131Z,69.41
2022-11-12T06:58:46.254Z,69.98
2022-11-12T07:01:17.119Z,70.45
2022-11-12T07:03:44.863Z,70.53
2022-11-12T07:06:15.416Z,71.42
2022-11-12T07:08:42.887Z,70.95
2022-11-12T07:11:11.274Z,70.11
2022-11-12T07:13:39.147Z,69.73
2022-11-12T07:16:08.255Z,69.66
2022-11-12T07:18:38.265Z,69.21
2022-11-12T07:21:08.124Z,69.14
2022-11-12T07:23:36.982Z,70.46
2022-11-12T07:26:15.441Z,69.40
2022-11-12T07:28:43.044Z,69.45
2022-11-12T07:31:15.572Z,69.58
2022-11-12T07:33:44.380Z,69.54
2022-11-12T07:36:15.664Z,70.37
2022-11-12T07:38:44.004Z,70.46
2022-11-12T07:41:14.351Z,70.46
2022-11-12T07:43:43.789Z,70.78
2022-11-12T07:46:18.883Z,70.95
2022-11-12T07:48:46.939Z,71.24
2022-11-12T07:51:17.120Z,70.61
2022-11-12T07:53:45.391Z,70.55
2022-11-12T07:56:19.623Z,71.04
2022-11-12T07:58:47.998Z,69.78
2022-11-12T08:01:32.041Z,69.37
2022-11-12T08:04:05.859Z,70.42
2022-11-12T08:06:33.686Z,70.56
2022-11-12T08:09:04.815Z,70.35
2022-11-12T08:11:37.414Z,70.46
2022-11-12T08:14:05.354Z,71.14
2022-11-12T08:16:33.039Z,70.70
2022-11-12T08:19:01.360Z,71.29
2022-11-12T08:21:28.469Z,69.90
2022-11-12T08:23:55.576Z,70.05
2022-11-12T08:26:22.699Z,71.07
2022-11-12T08:28:50.087Z,70.54
2022-11-12T08:31:21.256Z,70.06
2022-11-12T08:33:49.081Z,71.00
2022-11-12T08:36:18.320Z,71.10
2022-11-12T08:38:46.172Z,69.87
2022-11-12T08:41:15.653Z,70.21
2022-11-12T08:43:43.333Z,69.89
2022-11-12T08:46:10.690Z,70.04
2022-11-12T08:48:40.056Z,70.19
2022-11-12T08:51:08.209Z,70.34
2022-11-12T08:53:35.710Z,70.59
2022-11-12T08:56:05.304Z,69.56
2022-11-12T08:58:34.728Z,69.64
2022-11-12T09:01:08.730Z,69.61
2022-11-12T09:03:36.405Z,69.14
2022-11-12T09:06:05.233Z,68.94
2022-11-12T09:08:35.001Z,68.90
2022-11-12T09:11:02.136Z,68.69
2022-11-12T09:13:29.326Z,68.60
2022-11-12T09:16:05.030Z,69.03
2022-11-12T09:18:36.057Z,69.09
2022-11-12T09:21:10.544Z,68.02
2022-11-12T09:23:40.077Z,68.18
2022-11-12T09:26:07.529Z,68.57
2022-11-12T09:28:35.683Z,69.11
2022-11-12T09:31:03.070Z,68.97
2022-11-12T09:33:33.814Z,68.45
2022-11-12T09:36:02.789Z,68.46
2022-11-12T09:38:31.209Z,68.17
2022-11-12T09:41:34.807Z,67.35
2022-11-12T09:44:12.623Z,67.72
2022-11-12T09:46:55.252Z,67.06
2022-11-12T09:49:36.738Z,66.66
2022-11-12T09:52:13.551Z,66.58
2022-11-12T09:54:42.521Z,65.78
2022-11-12T09:57:12.758Z,65.93
2022-11-12T09:59:42.809Z,67.00
2022-11-12T10:02:26.270Z,66.86
2022-11-12T10:05:13.610Z,65.91
2022-11-12T10:07:49.933Z,66.37
2022-11-12T10:10:41.257Z,66.18
2022-11-12T10:13:54.972Z,66.39
2022-11-12T10:17:01.035Z,67.04
2022-11-12T10:19:53.667Z,65.52
2022-11-12T10:22:37.518Z,66.13
2022-11-12T10:25:20.314Z,66.29
2022-11-12T10:27:49.879Z,66.25
2022-11-12T10:30:21.958Z,65.83
2022-11-12T10:32:51.077Z,66.07
2022-11-12T10:35:22.202Z,66.75
2022-11-12T10:38:15.787Z,67.25
2022-11-12T10:40:43.331Z,66.92
2022-11-12T10:43:16.437Z,66.65
2022-11-12T10:45:45.731Z,66.95
2022-11-12T10:48:53.285Z,67.24
2022-11-12T10:51:38.198Z,67.00
2022-11-12T10:54:37.389Z,66.00
2022-11-12T10:57:25.821Z,66.20
2022-11-12T11:00:12.386Z,65.82
2022-11-12T11:02:52.341Z,66.18
2022-11-12T11:05:36.978Z,66.32
2022-11-12T11:08:05.695Z,66.24
2022-11-12T11:10:36.081Z,66.85
2022-11-12T11:13:21.036Z,66.30
2022-11-12T11:16:01.652Z,67.43
2022-11-12T11:18:31.307Z,67.07
2022-11-12T11:21:32.213Z,67.09
2022-11-12T11:24:42.975Z,68.64
2022-11-12T11:27:58.474Z,66.98
2022-11-12T11:30:25.757Z,66.38
2022-11-12T11:33:53.481Z,67.07
2022-11-12T11:37:07.237Z,66.43
2022-11-12T11:39:43.186Z,66.28
2022-11-12T11:42:57.435Z,66.35
2022-11-12T11:46:03.731Z,67.41
2022-11-12T11:48:47.562Z,67.42
2022-11-12T11:51:29.115Z,67.09
2022-11-12T11:53:59.113Z,67.21
2022-11-12T11:56:34.091Z,66.38
2022-11-12T11:59:08.245Z,67.20
2022-11-12T12:02:18.882Z,67.40
2022-11-12T12:04:48.582Z,66.87
2022-11-12T12:07:22.739Z,66.99
2022-11-12T12:10:02.452Z,67.78
2022-11-12T12:12:55.963Z,67.72
2022-11-12T12:16:12.950Z,68.05
2022-11-12T12:19:27.813Z,68.20
2022-11-12T12:21:58.466Z,66.76
2022-11-12T12:24:32.535Z,66.69
2022-11-12T12:27:15.647Z,67.70
2022-11-12T12:30:23.076Z,66.69
2022-11-12T12:33:17.789Z,66.89
2022-11-12T12:36:12.974Z,66.86
2022-11-12T12:38:56.137Z,67.18
2022-11-12T12:41:43.465Z,67.01
2022-11-12T12:44:11.824Z,66.96
2022-11-12T12:46:47.780Z,67.29
2022-11-12T12:49:25.977Z,68.01
2022-11-12T12:51:55.818Z,67.23
2022-11-12T12:54:35.328Z,67.74
2022-11-12T12:57:05.009Z,66.91
2022-11-12T12:59:32.626Z,67.11
2022-11-12T13:02:02.913Z,67.64
2022-11-12T13:04:58.622Z,68.24
2022-11-12T13:07:43.381Z,68.72
2022-11-12T13:10:41.535Z,68.27
2022-11-12T13:13:09.950Z,68.04
2022-11-12T13:15:49.721Z,68.37
2022-11-12T13:18:38.579Z,69.22
2022-11-12T13:21:21.330Z,68.86
2022-11-12T13:24:06.782Z,68.69
2022-11-12T13:26:40.097Z,68.73
2022-11-12T13:29:27.940Z,68.83
2022-11-12T13:32:32.595Z,68.19
2022-11-12T13:35:26.178Z,68.44
2022-11-12T13:38:13.401Z,68.63
2022-11-12T13:41:06.410Z,68.57
2022-11-12T13:43:47.279Z,68.45
2022-11-12T13:46:46.345Z,68.01
2022-11-12T13:49:18.005Z,67.76
2022-11-12T13:51:52.250Z,68.81
2022-11-12T13:54:36.762Z,68.72
2022-11-12T13:57:19.954Z,68.82
2022-11-12T13:59:47.824Z,68.76
2022-11-12T14:02:26.316Z,68.07
2022-11-12T14:04:57.342Z,68.90
2022-11-12T14:07:31.955Z,68.59
2022-11-12T14:10:34.150Z,68.81
2022-11-12T14:13:32.110Z,68.51
2022-11-12T14:16:46.555Z,68.60
2022-11-12T14:19:34.663Z,68.69
2022-11-12T14:22:20.238Z,69.01
2022-11-12T14:24:54.902Z,69.80
2022-11-12T14:27:43.915Z,68.86
2022-11-12T14:30:33.583Z,68.94
2022-11-12T14:33:09.236Z,68.70
2022-11-12T14:35:39.878Z,68.90
2022-11-12T14:38:12.573Z,69.52
2022-11-12T14:40:55.027Z,69.42
2022-11-12T14:43:33.948Z,69.84
2022-11-12T14:46:04.184Z,70.34
2022-11-12T14:48:50.099Z,69.84
2022-11-12T14:51:18.026Z,69.44
2022-11-12T14:54:00.199Z,69.70
2022-11-12T14:56:43.411Z,70.62
2022-11-12T14:59:17.431Z,69.86
2022-11-12T15:04:59.313Z,69.54
2022-11-12T15:07:50.322Z,69.90
2022-11-12T15:10:38.809Z,71.08
2022-11-12T15:13:14.725Z,71.10
2022-11-12T15:16:04.752Z,70.92
2022-11-12T15:18:34.708Z,70.85
2022-11-12T15:21:24.010Z,70.38
2022-11-12T15:24:01.948Z,71.64
2022-11-12T15:26:42.061Z,70.84
2022-11-12T15:29:33.735Z,71.37
2022-11-12T15:32:02.500Z,70.75
2022-11-12T15:34:40.028Z,70.70
2022-11-12T15:37:21.244Z,71.13
2022-11-12T15:40:00.856Z,70.65
2022-11-12T15:42:37.589Z,70.22
2022-11-12T15:45:10.111Z,69.98
2022-11-12T15:47:37.135Z,70.56
2022-11-12T15:50:25.543Z,70.59
2022-11-12T15:52:52.658Z,70.51
2022-11-12T15:55:19.844Z,70.37
2022-11-12T15:57:51.155Z,71.36
2022-11-12T16:00:24.201Z,71.03
2022-11-12T16:03:19.407Z,70.65
2022-11-12T16:05:47.041Z,72.03
2022-11-12T16:08:14.622Z,71.16
2022-11-12T16:10:43.528Z,70.67
2022-11-12T16:13:28.658Z,71.28
2022-11-12T16:15:56.351Z,71.15
2022-11-12T16:18:23.468Z,71.17
2022-11-12T16:20:50.577Z,70.88
2022-11-12T16:23:17.631Z,70.61
2022-11-12T16:25:45.264Z,70.99
2022-11-12T16:28:18.355Z,70.37
2022-11-12T16:30:50.700Z,70.33
2022-11-12T16:33:17.976Z,71.27
2022-11-12T16:35:45.210Z,71.24
2022-11-12T16:38:19.480Z,71.06
2022-11-12T16:40:46.715Z,71.48
2022-11-12T16:43:16.011Z,71.03
2022-11-12T16:45:45.273Z,71.27
2022-11-12T16:48:22.360Z,71.20
2022-11-12T16:50:49.858Z,71.93
2022-11-12T16:53:17.005Z,71.33
2022-11-12T16:55:44.745Z,71.83
2022-11-12T16:58:15.469Z,71.41
2022-11-12T17:00:50.227Z,70.43
2022-11-12T17:03:17.330Z,71.28
2022-11-12T17:05:44.364Z,70.76
2022-11-12T17:08:11.504Z,70.54
2022-11-12T17:10:41.623Z,70.36
2022-11-12T17:13:13.481Z,70.67
2022-11-12T17:15:40.967Z,70.96
2022-11-12T17:18:08.600Z,70.80
2022-11-12T17:20:35.802Z,70.86
2022-11-12T17:23:05.415Z,70.38
2022-11-12T17:25:32.468Z,70.55
2022-11-12T17:27:59.730Z,69.85
2022-11-12T17:30:26.772Z,70.69
2022-11-12T17:32:54.012Z,70.24
2022-11-12T17:35:21.062Z,70.58
2022-11-12T17:37:48.102Z,71.12
2022-11-12T17:40:15.723Z,71.59
2022-11-12T17:42:42.776Z,70.24
2022-11-12T17:45:10.136Z,70.73
2022-11-12T17:47:40.473Z,70.14
2022-11-12T17:50:08.445Z,70.34
2022-11-12T17:52:35.500Z,70.76
2022-11-12T17:55:05.669Z,70.63
2022-11-12T17:57:32.653Z,70.96
2022-11-12T17:59:59.823Z,71.61
2022-11-12T18:02:26.946Z,71.32
2022-11-12T18:04:53.996Z,71.22
2022-11-12T18:07:21.100Z,71.39
2022-11-12T18:09:48.728Z,71.56
2022-11-12T18:12:18.790Z,71.32
2022-11-12T18:14:46.326Z,71.13
2022-11-12T18:17:16.418Z,71.14
2022-11-12T18:19:44.300Z,72.14
2022-11-12T18:22:14.639Z,72.32
2022-11-12T18:24:45.412Z,71.66
2022-11-12T18:27:12.555Z,70.75
2022-11-12T18:29:41.643Z,71.21
2022-11-12T18:32:08.858Z,72.03
2022-11-12T18:34:38.205Z,71.40
2022-11-12T18:37:05.340Z,71.25
2022-11-12T18:39:32.614Z,72.14
2022-11-12T18:41:59.608Z,70.94
2022-11-12T18:44:26.947Z,71.27
2022-11-12T18:46:56.401Z,71.19
2022-11-12T18:49:23.693Z,72.24
2022-11-12T18:51:53.162Z,71.99
2022-11-12T18:54:20.207Z,72.15
2022-11-12T18:56:48.054Z,72.01
2022-11-12T18:59:16.425Z,71.85
2022-11-12T19:01:43.726Z,72.05
2022-11-12T19:04:12.948Z,71.73
2022-11-12T19:06:40.197Z,71.19
2022-11-12T19:09:11.502Z,71.95
2022-11-12T19:11:38.743Z,72.09
2022-11-12T19:14:05.846Z,71.74
2022-11-12T19:16:32.930Z,72.51
2022-11-12T19:18:59.977Z,72.03
2022-11-12T19:21:27.921Z,72.43
2022-11-12T19:23:56.305Z,73.49
2022-11-12T19:26:25.892Z,73.85
2022-11-12T19:28:55.935Z,74.09
2022-11-12T19:31:26.597Z,73.54
2022-11-12T19:33:54.434Z,74.61
2022-11-12T19:36:26.291Z,74.42
2022-11-12T19:39:02.504Z,74.76
2022-11-12T19:41:29.824Z,74.49
2022-11-12T19:43:56.871Z,74.20
2022-11-12T19:46:23.984Z,74.70
2022-11-12T19:48:51.903Z,73.65
2022-11-12T19:51:18.940Z,73.80
2022-11-12T19:53:46.224Z,74.93
2022-11-12T19:56:17.475Z,76.02
2022-11-12T19:58:46.300Z,75.40
2022-11-12T20:01:17.410Z,76.36
2022-11-12T20:03:45.087Z,75.88
2022-11-12T20:06:21.389Z,75.18
2022-11-12T20:08:51.048Z,75.21
2022-11-12T20:11:20.564Z,76.50
2022-11-12T20:13:51.998Z,75.85
2022-11-12T20:16:24.883Z,76.42
2022-11-12T20:18:55.557Z,77.48
2022-11-12T20:21:24.057Z,77.17
2022-11-12T20:23:53.840Z,79.45
2022-11-12T20:26:21.042Z,77.53
2022-11-12T20:28:48.438Z,76.87
2022-11-12T20:31:20.905Z,76.41
2022-11-12T20:33:50.650Z,76.10
2022-11-12T20:36:22.602Z,75.76
2022-11-12T20:38:50.717Z,75.71
2022-11-12T20:41:26.462Z,75.58
2022-11-12T20:43:55.553Z,75.18
2022-11-12T20:46:23.031Z,76.17
2022-11-12T20:48:50.176Z,76.13
2022-11-12T20:51:25.485Z,77.15
2022-11-12T20:54:00.217Z,78.11
2022-11-12T20:56:30.705Z,77.75
2022-11-12T20:58:59.363Z,78.67
2022-11-12T21:01:28.732Z,77.73
2022-11-12T21:03:57.494Z,77.78
2022-11-12T21:06:28.189Z,78.16
2022-11-12T21:08:58.543Z,77.65
2022-11-12T21:11:25.677Z,77.78
2022-11-12T21:13:52.760Z,77.90
2022-11-12T21:16:20.017Z,78.75
2022-11-12T21:18:47.335Z,78.39
2022-11-12T21:21:18.411Z,79.01
2022-11-12T21:23:47.434Z,80.41
2022-11-12T21:26:20.513Z,80.13
2022-11-12T21:28:55.659Z,80.28
2022-11-12T21:31:28.167Z,80.75
2022-11-12T21:34:00.698Z,81.41
2022-11-12T21:36:29.689Z,80.86
2022-11-12T21:38:57.390Z,81.23
2022-11-12T21:41:27.971Z,80.63
2022-11-12T21:43:58.177Z,81.72
2022-11-12T21:46:30.845Z,81.23
2022-11-12T21:48:59.277Z,81.37
2022-11-12T21:51:32.928Z,81.24
2022-11-12T21:54:01.555Z,83.04
2022-11-12T21:56:29.979Z,82.53
2022-11-12T21:59:01.588Z,82.77
2022-11-12T22:01:32.273Z,81.21
2022-11-12T22:03:59.906Z,81.85
2022-11-12T22:06:29.686Z,81.51
2022-11-12T22:08:58.143Z,80.32
2022-11-12T22:11:27.928Z,81.17
2022-11-12T22:13:57.381Z,81.25
2022-11-12T22:16:27.713Z,81.11
2022-11-12T22:18:56.856Z,81.30
2022-11-12T22:21:27.978Z,82.28
2022-11-12T22:23:57.087Z,82.11
2022-11-12T22:26:27.481Z,82.13
2022-11-12T22:28:59.997Z,82.38
2022-11-12T22:31:32.772Z,82.71
2022-11-12T22:34:02.002Z,82.63
2022-11-12T22:36:40.064Z,81.57
2022-11-12T22:39:07.421Z,81.90
2022-11-12T22:41:34.576Z,82.28
2022-11-12T22:44:03.236Z,82.21
2022-11-12T22:46:39.108Z,82.04
2022-11-12T22:49:06.574Z,81.59
2022-11-12T22:51:34.721Z,81.25
2022-11-12T22:54:05.911Z,80.75
2022-11-12T22:56:36.184Z,80.20
2022-11-12T22:59:04.926Z,80.64
2022-11-12T23:01:35.503Z,80.37
2022-11-12T23:04:06.237Z,79.91
2022-11-12T23:06:33.715Z,79.30
2022-11-12T23:09:01.568Z,79.18
2022-11-12T23:11:30.100Z,79.47
2022-11-12T23:13:57.625Z,79.20
2022-11-12T23:16:30.778Z,78.56
2022-11-12T23:18:58.480Z,78.31
2022-11-12T23:21:29.269Z,79.26
2022-11-12T23:23:58.427Z,79.55
2022-11-12T23:26:28.835Z,79.19
2022-11-12T23:28:55.937Z,80.58
2022-11-12T23:31:30.320Z,79.13
2022-11-12T23:34:00.323Z,79.64
2022-11-12T23:36:28.529Z,79.68
2022-11-12T23:38:56.871Z,78.77
2022-11-12T23:41:27.929Z,79.00
2022-11-12T23:43:56.853Z,78.54
2022-11-12T23:46:24.768Z,78.54
2022-11-12T23:48:51.898Z,78.73
2022-11-12T23:51:23.340Z,78.29
2022-11-12T23:53:50.563Z,79.33
2022-11-12T23:56:19.927Z,79.14
2022-11-12T23:58:47.360Z,78.29
